Brilliant, Alabama
Current Conditions -  °F | °C
As of 8:56 AM on Wednesday 26 Nov 2014 (Local Time) from K1M4 Reporting Station
Clear Clear  
Wind Chill: 40°   Ceiling: Unl
Heat Index: 40°   Visibility: 10mi
Dew Point: 29°   Wind: 0mph
Humidity: 65%   Direction: NA
Pressure: 30.18"   Gusts: NA
Location:  34.03°N, 87.76°W
Report Text: K1M4 261456Z AUTO 00000KT 10SM CLR 04/M02 A3018 RMK AO2 53008 T00441016 SLP232
Loading
Personal Weather Stations






























Interactive Weather Map New forecast layout! Learn more

10-Day Weather Forecast

Advertisements
Track Severe Weather on mobile